Weather at Siteki Airport

Public forecast

Using degrees Celsius for public forecast. Weather courtesy of forecast.io.

Current aviation weather report (METAR) for Siteki Airport

Report is more than 6 hours old.

Retrieved 2020/09/20 13:00 UTC (8 hours ago):

FDST 201300Z AUTO 22014KT //// // ////// 29/10 Q1011

Closest aviation forecast (TAF) to Siteki Airport

Forecast is more than 12 hours old.

Closest forecast is Matsapha Airport, 34.9 nm (64.5 km) W. Retrieved 2020/03/05 06:00 UTC (7 months ago):

TAF TAF FDMS 050400Z 0506/0518 06007KT CAVOK